Time,TemperatureF,DewpointF,PressureIn,WindDirection,WindDirectionDegrees,WindSpeedMPH,WindSpeedGustMPH,Humidity,HourlyPrecipIn,Conditions,Clouds,dailyrainin,SolarRadiationWatts/m^2,SoftwareType,DateUTC
2013-05-06 00:02:00,55.9,50.2,30.06,ESE,103,0.0,0.0,81,0.00,CLR,,0.00,0.0,WeatherDisplay:10.37,2013-05-06 05:02:00,
2013-05-06 00:07:00,55.6,50.2,30.06,ESE,103,0.0,0.0,82,0.00,CLR,,0.00,0.0,WeatherDisplay:10.37,2013-05-06 05:07:00,
2013-05-06 00:12:00,55.4,50.6,30.06,ESE,103,0.0,0.0,84,0.00,CLR,,0.00,0.0,WeatherDisplay:10.37,2013-05-06 05:12:00,
2013-05-06 00:17:00,55.1,50.7,30.06,ESE,103,0.0,0.0,85,0.00,CLR,,0.00,0.0,WeatherDisplay:10.37,2013-05-06 05:17:00,
2013-05-06 00:22:00,54.8,50.7,30.06,ESE,103,0.0,0.0,86,0.00,CLR,,0.00,0.0,WeatherDisplay:10.37,2013-05-06 05:22:00,
2013-05-06 00:27:00,54.5,50.4,30.06,ESE,103,0.0,0.0,86,0.00,CLR,,0.00,0.0,WeatherDisplay:10.37,2013-05-06 05:27:00,
2013-05-06 00:32:00,54.2,50.4,30.06,ESE,103,0.0,0.0,87,0.00,CLR,,0.00,0.0,WeatherDisplay:10.37,2013-05-06 05:32:00,
2013-05-06 00:37:00,53.9,50.1,30.06,ESE,103,0.0,0.0,87,0.00,CLR,,0.00,0.0,WeatherDisplay:10.37,2013-05-06 05:37:00,
2013-05-06 00:42:00,53.6,50.1,30.06,ESE,103,0.0,0.0,88,0.00,CLR,,0.00,0.0,WeatherDisplay:10.37,2013-05-06 05:42:00,
2013-05-06 00:47:00,53.5,50.0,30.06,ESE,103,0.0,0.0,88,0.00,CLR,,0.00,0.0,WeatherDisplay:10.37,2013-05-06 05:47:00,
2013-05-06 00:52:00,53.2,50.0,30.06,ESE,103,0.0,0.0,89,0.00,CLR,,0.00,0.0,WeatherDisplay:10.37,2013-05-06 05:52:00,
2013-05-06 00:57:00,53.2,50.3,30.06,ESE,103,0.0,0.0,90,0.00,CLR,,0.00,0.0,WeatherDisplay:10.37,2013-05-06 05:57:00,
2013-05-06 01:02:00,52.9,50.0,30.05,ESE,103,0.0,0.0,90,0.00,CLR,,0.00,0.0,WeatherDisplay:10.37,2013-05-06 06:02:00,
2013-05-06 01:07:00,52.8,49.9,30.05,ESE,103,0.0,0.0,90,0.00,CLR,,0.00,0.0,WeatherDisplay:10.37,2013-05-06 06:07:00,
2013-05-06 01:12:00,52.5,49.7,30.05,ESE,103,0.0,0.0,90,0.00,CLR,,0.00,0.0,WeatherDisplay:10.37,2013-05-06 06:12:00,
2013-05-06 01:17:00,52.3,49.5,30.05,ESE,103,0.0,0.0,90,0.00,CLR,,0.00,0.0,WeatherDisplay:10.37,2013-05-06 06:17:00,
2013-05-06 01:22:00,52.0,49.5,30.05,ESE,103,0.0,0.0,91,0.00,CLR,,0.00,0.0,WeatherDisplay:10.37,2013-05-06 06:22:00,
2013-05-06 01:27:00,51.9,49.4,30.05,ESE,103,0.0,0.0,91,0.00,CLR,,0.00,0.0,WeatherDisplay:10.37,2013-05-06 06:27:00,
2013-05-06 01:32:00,51.7,49.2,30.05,ESE,103,0.0,0.0,91,0.00,CLR,,0.00,0.0,WeatherDisplay:10.37,2013-05-06 06:32:00,
2013-05-06 01:37:00,51.6,49.1,30.05,ESE,103,0.0,0.0,91,0.00,CLR,,0.00,0.0,WeatherDisplay:10.37,2013-05-06 06:37:00,
2013-05-06 01:42:00,51.4,48.9,30.05,ESE,103,0.0,0.0,91,0.00,CLR,,0.00,0.0,WeatherDisplay:10.37,2013-05-06 06:42:00,
2013-05-06 01:47:00,51.3,48.8,30.05,ESE,103,0.0,0.0,91,0.00,CLR,,0.00,0.0,WeatherDisplay:10.37,2013-05-06 06:47:00,
2013-05-06 01:52:00,51.1,48.9,30.05,ESE,103,0.0,0.0,92,0.00,CLR,,0.00,0.0,WeatherDisplay:10.37,2013-05-06 06:52:00,
2013-05-06 01:57:00,51.0,48.8,30.05,ESE,103,0.0,0.0,92,0.00,CLR,,0.00,0.0,WeatherDisplay:10.37,2013-05-06 06:57:00,
2013-05-06 02:02:00,50.8,48.6,30.05,ESE,103,0.0,0.0,92,0.00,CLR,,0.00,0.0,WeatherDisplay:10.37,2013-05-06 07:02:00,
2013-05-06 02:07:00,50.7,48.5,30.05,ESE,103,0.0,0.0,92,0.00,CLR,,0.00,0.0,WeatherDisplay:10.37,2013-05-06 07:07:00,
2013-05-06 02:12:00,50.5,48.3,30.05,ESE,103,0.0,0.0,92,0.00,CLR,,0.00,0.0,WeatherDisplay:10.37,2013-05-06 07:12:00,
2013-05-06 02:17:00,50.5,48.3,30.05,ESE,103,0.0,0.0,92,0.00,CLR,,0.00,0.0,WeatherDisplay:10.37,2013-05-06 07:17:00,
2013-05-06 02:22:00,50.4,48.2,30.05,ESE,103,0.0,0.0,92,0.00,SCT,,0.00,0.0,WeatherDisplay:10.37,2013-05-06 07:22:00,
2013-05-06 02:27:00,50.1,48.2,30.05,ESE,103,0.0,0.0,93,0.00,SCT,,0.00,0.0,WeatherDisplay:10.37,2013-05-06 07:27:00,
2013-05-06 02:32:00,49.9,48.0,30.05,ESE,103,0.0,0.0,93,0.00,SCT,,0.00,0.0,WeatherDisplay:10.37,2013-05-06 07:32:00,
2013-05-06 02:37:00,49.8,47.9,30.05,ESE,103,0.0,0.0,93,0.00,SCT,,0.00,0.0,WeatherDisplay:10.37,2013-05-06 07:37:00,
2013-05-06 02:42:00,49.6,47.7,30.05,ESE,103,0.0,0.0,93,0.00,BKN,,0.00,0.0,WeatherDisplay:10.37,2013-05-06 07:42:00,
2013-05-06 02:47:00,49.5,47.6,30.05,ESE,103,0.0,0.0,93,0.00,BKN,,0.00,0.0,WeatherDisplay:10.37,2013-05-06 07:47:00,
2013-05-06 02:52:00,49.2,47.3,30.05,ESE,103,0.0,0.0,93,0.00,BKN,,0.00,0.0,WeatherDisplay:10.37,2013-05-06 07:52:00,
2013-05-06 02:57:00,49.1,47.2,30.05,ESE,103,0.0,0.0,93,0.00,BKN,,0.00,0.0,WeatherDisplay:10.37,2013-05-06 07:57:00,
2013-05-06 03:02:00,48.9,47.0,30.05,ESE,103,0.0,0.0,93,0.00,SCT,,0.00,0.0,WeatherDisplay:10.37,2013-05-06 08:02:00,
2013-05-06 03:07:00,48.8,46.9,30.05,ESE,103,0.0,0.0,93,0.00,SCT,,0.00,0.0,WeatherDisplay:10.37,2013-05-06 08:07:00,
2013-05-06 03:12:00,48.6,46.7,30.05,ESE,103,0.0,0.0,93,0.00,SCT,,0.00,0.0,WeatherDisplay:10.37,2013-05-06 08:12:00,
2013-05-06 03:17:00,48.5,46.6,30.05,ESE,103,0.0,0.0,93,0.00,SCT,,0.00,0.0,WeatherDisplay:10.37,2013-05-06 08:17:00,
2013-05-06 03:22:00,48.3,46.4,30.05,ESE,103,0.0,0.0,93,0.00,CLR,,0.00,0.0,WeatherDisplay:10.37,2013-05-06 08:22:00,
2013-05-06 03:27:00,48.2,46.3,30.05,ESE,103,0.0,0.0,93,0.00,CLR,,0.00,0.0,WeatherDisplay:10.37,2013-05-06 08:27:00,
2013-05-06 03:32:00,48.0,46.1,30.06,ESE,103,0.0,0.0,93,0.00,CLR,,0.00,0.0,WeatherDisplay:10.37,2013-05-06 08:32:00,
2013-05-06 03:37:00,47.9,46.0,30.06,ESE,103,0.0,0.0,93,0.00,CLR,,0.00,0.0,WeatherDisplay:10.37,2013-05-06 08:37:00,
2013-05-06 03:42:00,48.0,46.1,30.06,ESE,103,0.0,0.0,93,0.00,CLR,,0.00,0.0,WeatherDisplay:10.37,2013-05-06 08:42:00,
2013-05-06 03:47:00,48.2,46.6,30.06,ESE,103,0.0,0.0,94,0.00,CLR,,0.00,0.0,WeatherDisplay:10.37,2013-05-06 08:47:00,
2013-05-06 03:52:00,48.5,46.9,30.06,ESE,103,0.0,0.0,94,0.00,CLR,,0.00,0.0,WeatherDisplay:10.37,2013-05-06 08:52:00,
2013-05-06 03:57:00,48.5,46.9,30.06,ESE,103,0.0,0.0,94,0.00,CLR,,0.00,0.0,WeatherDisplay:10.37,2013-05-06 08:57:00,
2013-05-06 04:02:00,48.5,46.9,30.07,ESE,103,0.0,0.0,94,0.00,CLR,,0.00,0.0,WeatherDisplay:10.37,2013-05-06 09:02:00,
2013-05-06 04:07:00,48.3,46.7,30.07,ESE,103,0.0,0.0,94,0.00,CLR,,0.00,0.0,WeatherDisplay:10.37,2013-05-06 09:07:00,
2013-05-06 04:12:00,48.0,46.4,30.07,ESE,103,0.0,0.0,94,0.00,CLR,,0.00,0.0,WeatherDisplay:10.37,2013-05-06 09:12:00,
2013-05-06 04:17:00,47.9,46.3,30.07,ESE,103,0.0,0.0,94,0.00,CLR,,0.00,0.0,WeatherDisplay:10.37,2013-05-06 09:17:00,
2013-05-06 04:22:00,47.7,46.1,30.07,ESE,103,0.0,0.0,94,0.00,CLR,,0.00,0.0,WeatherDisplay:10.37,2013-05-06 09:22:00,
2013-05-06 04:27:00,47.7,46.1,30.07,ESE,103,0.0,0.0,94,0.00,CLR,,0.00,0.0,WeatherDisplay:10.37,2013-05-06 09:27:00,
2013-05-06 04:32:00,47.7,46.1,30.07,ESE,103,0.0,0.0,94,0.00,CLR,,0.00,0.0,WeatherDisplay:10.37,2013-05-06 09:32:00,
2013-05-06 04:37:00,47.7,46.1,30.07,ESE,103,0.0,0.0,94,0.00,CLR,,0.00,0.0,WeatherDisplay:10.37,2013-05-06 09:37:00,
2013-05-06 04:42:00,47.6,46.0,30.07,ESE,103,0.0,0.0,94,0.00,SCT,,0.00,0.0,WeatherDisplay:10.37,2013-05-06 09:42:00,
2013-05-06 04:47:00,47.4,45.8,30.07,ESE,103,0.0,0.0,94,0.00,SCT,,0.00,0.0,WeatherDisplay:10.37,2013-05-06 09:47:00,
2013-05-06 04:52:00,47.1,45.5,30.07,ESE,103,0.0,0.0,94,0.00,SCT,,0.00,0.0,WeatherDisplay:10.37,2013-05-06 09:52:00,
2013-05-06 04:57:00,47.1,45.5,30.07,ESE,103,0.0,0.0,94,0.00,SCT,,0.00,0.0,WeatherDisplay:10.37,2013-05-06 09:57:00,
2013-05-06 05:02:00,47.0,45.4,30.07,ESE,103,0.0,0.0,94,0.00,SCT,,0.00,0.0,WeatherDisplay:10.37,2013-05-06 10:02:00,
2013-05-06 05:07:00,47.0,45.6,30.07,ESE,103,0.0,0.0,95,0.00,SCT,,0.00,0.0,WeatherDisplay:10.37,2013-05-06 10:07:00,
2013-05-06 05:12:00,46.8,45.2,30.07,ESE,103,0.0,0.0,94,0.00,SCT,,0.00,0.0,WeatherDisplay:10.37,2013-05-06 10:12:00,
2013-05-06 05:17:00,46.5,44.9,30.07,ESE,103,0.0,0.0,94,0.00,SCT,,0.00,0.0,WeatherDisplay:10.37,2013-05-06 10:17:00,
2013-05-06 05:22:00,46.4,45.0,30.07,ESE,103,0.0,0.0,95,0.00,CLR,,0.00,0.0,WeatherDisplay:10.37,2013-05-06 10:22:00,
2013-05-06 05:27:00,46.4,45.0,30.07,ESE,103,0.0,0.0,95,0.00,CLR,,0.00,0.0,WeatherDisplay:10.37,2013-05-06 10:27:00,
2013-05-06 05:32:00,46.2,44.8,30.08,ESE,103,0.0,0.0,95,0.00,CLR,,0.00,0.0,WeatherDisplay:10.37,2013-05-06 10:32:00,
2013-05-06 05:37:00,46.2,44.8,30.08,ESE,103,0.0,0.0,95,0.00,CLR,,0.00,0.0,WeatherDisplay:10.37,2013-05-06 10:37:00,
2013-05-06 05:42:00,46.4,45.0,30.08,ESE,103,0.0,0.0,95,0.00,CLR,,0.00,0.0,WeatherDisplay:10.37,2013-05-06 10:42:00,
2013-05-06 05:47:00,46.4,45.0,30.08,ESE,103,0.0,0.0,95,0.00,CLR,,0.00,0.0,WeatherDisplay:10.37,2013-05-06 10:47:00,
2013-05-06 05:52:00,46.4,45.0,30.08,ESE,103,0.0,0.0,95,0.00,CLR,,0.00,5.0,WeatherDisplay:10.37,2013-05-06 10:52:00,
2013-05-06 05:57:00,46.2,44.8,30.08,ESE,103,0.0,0.0,95,0.00,CLR,,0.00,9.0,WeatherDisplay:10.37,2013-05-06 10:57:00,
2013-05-06 06:02:00,46.1,45.0,30.08,ESE,103,0.0,0.0,96,0.00,CLR,,0.00,12.0,WeatherDisplay:10.37,2013-05-06 11:02:00,
2013-05-06 06:07:00,46.1,45.0,30.08,ESE,103,0.0,0.0,96,0.00,CLR,,0.00,16.0,WeatherDisplay:10.37,2013-05-06 11:07:00,
2013-05-06 06:12:00,46.1,45.0,30.08,ESE,103,0.0,0.0,96,0.00,CLR,,0.00,23.0,WeatherDisplay:10.37,2013-05-06 11:12:00,
2013-05-06 06:17:00,46.1,45.0,30.08,ESE,103,0.0,0.0,96,0.00,CLR,,0.00,30.0,WeatherDisplay:10.37,2013-05-06 11:17:00,
2013-05-06 06:22:00,46.1,45.0,30.08,ESE,103,0.0,0.0,96,0.00,CLR,,0.00,37.0,WeatherDisplay:10.37,2013-05-06 11:22:00,
2013-05-06 06:27:00,46.1,45.0,30.08,ESE,103,0.0,0.0,96,0.00,CLR,,0.00,44.0,WeatherDisplay:10.37,2013-05-06 11:27:00,
2013-05-06 06:32:00,46.1,45.0,30.08,ESE,103,0.0,0.0,96,0.00,CLR,,0.00,51.0,WeatherDisplay:10.37,2013-05-06 11:32:00,
2013-05-06 06:37:00,46.1,45.0,30.08,ESE,103,0.0,0.0,96,0.00,CLR,,0.00,60.0,WeatherDisplay:10.37,2013-05-06 11:37:00,
2013-05-06 06:42:00,46.1,45.0,30.08,ESE,103,0.0,0.0,96,0.00,CLR,,0.00,67.0,WeatherDisplay:10.37,2013-05-06 11:42:00,
2013-05-06 06:47:00,46.2,45.1,30.08,ESE,103,0.0,0.0,96,0.00,CLR,,0.00,76.0,WeatherDisplay:10.37,2013-05-06 11:47:00,
2013-05-06 06:52:00,46.4,45.3,30.08,ESE,103,0.0,0.0,96,0.00,CLR,,0.00,88.0,WeatherDisplay:10.37,2013-05-06 11:52:00,
2013-05-06 06:57:00,46.5,45.4,30.08,ESE,103,0.0,0.0,96,0.00,CLR,,0.00,98.0,WeatherDisplay:10.37,2013-05-06 11:57:00,
2013-05-06 07:02:00,46.7,45.6,30.08,ESE,103,0.0,0.0,96,0.00,CLR,,0.00,114.0,WeatherDisplay:10.37,2013-05-06 12:02:00,
2013-05-06 07:07:00,46.8,45.7,30.08,ESE,103,0.0,0.0,96,0.00,CLR,,0.00,130.0,WeatherDisplay:10.37,2013-05-06 12:07:00,
2013-05-06 07:12:00,46.8,45.7,30.08,ESE,103,0.0,0.0,96,0.00,CLR,,0.00,127.0,WeatherDisplay:10.37,2013-05-06 12:12:00,
2013-05-06 07:17:00,47.1,46.0,30.09,ESE,103,0.0,0.0,96,0.00,CLR,,0.00,137.0,WeatherDisplay:10.37,2013-05-06 12:17:00,
2013-05-06 07:22:00,47.3,46.2,30.09,ESE,103,0.0,0.0,96,0.00,CLR,,0.00,151.0,WeatherDisplay:10.37,2013-05-06 12:22:00,
2013-05-06 07:27:00,47.7,46.6,30.09,ESE,103,0.0,0.0,96,0.00,CLR,,0.00,163.0,WeatherDisplay:10.37,2013-05-06 12:27:00,
2013-05-06 07:32:00,47.9,46.5,30.10,ESE,103,0.0,0.0,95,0.00,CLR,,0.00,151.0,WeatherDisplay:10.37,2013-05-06 12:32:00,
2013-05-06 07:37:00,48.2,46.6,30.10,ESE,103,0.0,0.0,94,0.00,CLR,,0.00,155.0,WeatherDisplay:10.37,2013-05-06 12:37:00,
2013-05-06 07:42:00,48.5,46.9,30.10,ESE,103,0.0,0.0,94,0.00,CLR,,0.00,179.0,WeatherDisplay:10.37,2013-05-06 12:42:00,
2013-05-06 07:47:00,48.8,46.9,30.10,ESE,103,0.0,0.0,93,0.00,CLR,,0.00,204.0,WeatherDisplay:10.37,2013-05-06 12:47:00,
2013-05-06 07:52:00,49.2,47.3,30.10,ESE,103,0.0,0.0,93,0.00,CLR,,0.00,181.0,WeatherDisplay:10.37,2013-05-06 12:52:00,
2013-05-06 07:57:00,49.8,47.6,30.10,ESE,103,0.0,0.0,92,0.00,CLR,,0.00,186.0,WeatherDisplay:10.37,2013-05-06 12:57:00,
2013-05-06 08:02:00,50.4,47.9,30.10,ESE,103,0.0,0.0,91,0.00,CLR,,0.00,193.0,WeatherDisplay:10.37,2013-05-06 13:02:00,
2013-05-06 08:07:00,50.5,47.7,30.10,ESE,103,0.0,0.0,90,0.00,CLR,,0.00,214.0,WeatherDisplay:10.37,2013-05-06 13:07:00,
2013-05-06 08:12:00,51.0,47.9,30.10,ESE,103,0.0,0.0,89,0.00,CLR,,0.00,230.0,WeatherDisplay:10.37,2013-05-06 13:12:00,
2013-05-06 08:17:00,51.4,48.0,30.11,ESE,103,0.0,0.0,88,0.00,CLR,,0.00,239.0,WeatherDisplay:10.37,2013-05-06 13:17:00,
2013-05-06 08:22:00,51.9,48.2,30.11,ESE,103,0.0,0.0,87,0.00,CLR,,0.00,313.0,WeatherDisplay:10.37,2013-05-06 13:22:00,
2013-05-06 08:27:00,52.3,48.2,30.11,ESE,103,0.0,0.0,86,0.00,CLR,,0.00,283.0,WeatherDisplay:10.37,2013-05-06 13:27:00,
2013-05-06 08:32:00,52.8,48.1,30.10,ESE,103,0.0,0.0,84,0.00,CLR,,0.00,388.0,WeatherDisplay:10.37,2013-05-06 13:32:00,
2013-05-06 08:37:00,53.5,48.1,30.10,ESE,103,0.0,0.0,82,0.00,CLR,,0.00,417.0,WeatherDisplay:10.37,2013-05-06 13:37:00,
2013-05-06 08:42:00,54.4,47.7,30.10,ESE,103,0.0,0.0,78,0.00,CLR,,0.00,506.0,WeatherDisplay:10.37,2013-05-06 13:42:00,
2013-05-06 08:47:00,55.3,47.9,30.10,ESE,103,0.0,0.0,76,0.00,CLR,,0.00,489.0,WeatherDisplay:10.37,2013-05-06 13:47:00,
2013-05-06 08:52:00,56.3,48.1,30.10,ESE,103,0.0,0.0,74,0.00,CLR,,0.00,517.0,WeatherDisplay:10.37,2013-05-06 13:52:00,
2013-05-06 08:57:00,56.6,48.0,30.10,ESE,103,0.0,0.0,73,0.00,CLR,,0.00,538.0,WeatherDisplay:10.37,2013-05-06 13:57:00,
2013-05-06 09:02:00,56.6,47.7,30.10,ESE,106,0.0,1.2,72,0.00,CLR,,0.00,594.0,WeatherDisplay:10.37,2013-05-06 14:02:00,
2013-05-06 09:07:00,57.3,47.2,30.10,SSE,161,0.0,0.0,69,0.00,CLR,,0.00,647.0,WeatherDisplay:10.37,2013-05-06 14:07:00,
2013-05-06 09:12:00,58.6,46.9,30.10,South,186,0.0,0.0,65,0.00,CLR,,0.00,645.0,WeatherDisplay:10.37,2013-05-06 14:12:00,
2013-05-06 09:17:00,59.6,47.8,30.10,South,186,0.0,0.0,65,0.00,CLR,,0.00,664.0,WeatherDisplay:10.37,2013-05-06 14:17:00,
2013-05-06 09:22:00,60.4,48.2,30.10,South,186,0.0,0.0,64,0.00,CLR,,0.00,661.0,WeatherDisplay:10.37,2013-05-06 14:22:00,
2013-05-06 09:27:00,60.5,47.8,30.10,South,186,0.0,0.0,63,0.00,CLR,,0.00,659.0,WeatherDisplay:10.37,2013-05-06 14:27:00,
2013-05-06 09:32:00,60.9,47.8,30.10,South,186,0.0,1.2,62,0.00,CLR,,0.00,663.0,WeatherDisplay:10.37,2013-05-06 14:32:00,
2013-05-06 09:37:00,61.6,48.0,30.10,South,186,0.0,0.0,61,0.00,CLR,,0.00,666.0,WeatherDisplay:10.37,2013-05-06 14:37:00,
2013-05-06 09:42:00,63.1,46.2,30.10,South,186,0.0,0.0,54,0.00,CLR,,0.00,677.0,WeatherDisplay:10.37,2013-05-06 14:42:00,
2013-05-06 09:47:00,63.5,45.6,30.10,South,184,0.0,0.0,52,0.00,CLR,,0.00,677.0,WeatherDisplay:10.37,2013-05-06 14:47:00,
2013-05-06 09:52:00,64.3,46.3,30.10,ESE,119,0.0,0.0,52,0.00,CLR,,0.00,705.0,WeatherDisplay:10.37,2013-05-06 14:52:00,
2013-05-06 09:57:00,65.0,46.4,30.10,ENE,76,0.0,0.0,51,0.00,CLR,,0.00,719.0,WeatherDisplay:10.37,2013-05-06 14:57:00,
2013-05-06 10:02:00,65.5,46.4,30.09,ENE,76,0.1,1.2,50,0.00,CLR,,0.00,728.0,WeatherDisplay:10.37,2013-05-06 15:02:00,
2013-05-06 10:07:00,65.5,46.9,30.09,ENE,76,0.1,1.2,51,0.00,CLR,,0.00,754.0,WeatherDisplay:10.37,2013-05-06 15:07:00,
2013-05-06 10:12:00,65.2,46.6,30.09,SSW,194,0.0,1.2,51,0.00,CLR,,0.00,754.0,WeatherDisplay:10.37,2013-05-06 15:12:00,
2013-05-06 10:17:00,65.0,46.9,30.09,SSW,198,0.2,1.2,52,0.00,CLR,,0.00,722.0,WeatherDisplay:10.37,2013-05-06 15:17:00,
2013-05-06 10:22:00,65.3,45.1,30.09,SSW,198,0.9,2.4,48,0.00,CLR,,0.00,650.0,WeatherDisplay:10.37,2013-05-06 15:22:00,
2013-05-06 10:27:00,65.5,45.8,30.09,West,261,0.1,2.3,49,0.00,CLR,,0.00,745.0,WeatherDisplay:10.37,2013-05-06 15:27:00,
2013-05-06 10:32:00,66.1,46.4,30.09,West,265,0.0,1.2,49,0.00,CLR,,0.00,805.0,WeatherDisplay:10.37,2013-05-06 15:32:00,
2013-05-06 10:37:00,66.4,45.5,30.09,West,267,0.1,1.2,47,0.00,CLR,,0.00,791.0,WeatherDisplay:10.37,2013-05-06 15:37:00,
2013-05-06 10:42:00,67.3,45.2,30.09,West,277,0.6,3.5,45,0.00,CLR,,0.00,805.0,WeatherDisplay:10.37,2013-05-06 15:42:00,
2013-05-06 10:47:00,67.4,45.3,30.09,WNW,298,1.2,4.8,45,0.00,CLR,,0.00,817.0,WeatherDisplay:10.37,2013-05-06 15:47:00,
2013-05-06 10:52:00,67.9,44.6,30.09,WNW,302,0.5,3.6,43,0.00,CLR,,0.00,847.0,WeatherDisplay:10.37,2013-05-06 15:52:00,
2013-05-06 10:57:00,68.6,43.9,30.09,West,271,0.0,0.0,41,0.00,CLR,,0.00,763.0,WeatherDisplay:10.37,2013-05-06 15:57:00,
2013-05-06 11:02:00,68.6,43.3,30.08,West,266,1.7,4.6,40,0.00,CLR,,0.00,754.0,WeatherDisplay:10.37,2013-05-06 16:02:00,
2013-05-06 11:07:00,68.8,44.8,30.08,WNW,289,1.4,4.8,42,0.00,CLR,,0.00,784.0,WeatherDisplay:10.37,2013-05-06 16:07:00,
2013-05-06 11:12:00,69.9,43.8,30.08,West,277,0.0,1.2,39,0.00,CLR,,0.00,784.0,WeatherDisplay:10.37,2013-05-06 16:12:00,
2013-05-06 11:17:00,69.6,43.5,30.08,WNW,292,0.0,0.0,39,0.00,CLR,,0.00,803.0,WeatherDisplay:10.37,2013-05-06 16:17:00,
2013-05-06 11:22:00,69.6,43.5,30.08,NW,321,0.3,2.4,39,0.00,CLR,,0.00,812.0,WeatherDisplay:10.37,2013-05-06 16:22:00,
2013-05-06 11:27:00,69.4,43.4,30.08,WSW,243,2.9,4.8,39,0.00,CLR,,0.00,807.0,WeatherDisplay:10.37,2013-05-06 16:27:00,
2013-05-06 11:32:00,71.8,46.8,30.08,WSW,243,0.0,1.2,41,0.00,CLR,,0.00,826.0,WeatherDisplay:10.37,2013-05-06 16:32:00,
2013-05-06 11:37:00,72.3,44.6,30.08,NW,324,1.4,8.1,37,0.00,CLR,,0.00,807.0,WeatherDisplay:10.37,2013-05-06 16:37:00,
2013-05-06 11:42:00,72.0,42.8,30.08,NE,53,4.2,6.9,35,0.00,CLR,,0.00,754.0,WeatherDisplay:10.37,2013-05-06 16:42:00,
2013-05-06 11:47:00,71.8,41.1,30.08,NE,41,0.6,3.6,33,0.00,CLR,,0.00,733.0,WeatherDisplay:10.37,2013-05-06 16:47:00,
2013-05-06 11:52:00,71.6,41.0,30.08,NNE,33,0.7,4.6,33,0.00,CLR,,0.00,772.0,WeatherDisplay:10.37,2013-05-06 16:52:00,
2013-05-06 11:57:00,71.6,41.7,30.08,North,5,0.0,1.2,34,0.00,CLR,,0.00,664.0,WeatherDisplay:10.37,2013-05-06 16:57:00,
2013-05-06 12:02:00,72.0,42.1,30.07,East,80,6.5,8.4,34,0.00,CLR,,0.00,694.0,WeatherDisplay:10.37,2013-05-06 17:02:00,
2013-05-06 12:07:00,71.5,40.9,30.07,East,92,4.2,6.0,33,0.00,CLR,,0.00,842.0,WeatherDisplay:10.37,2013-05-06 17:07:00,
2013-05-06 12:12:00,72.0,41.3,30.07,NNW,347,2.9,5.8,33,0.00,CLR,,0.00,796.0,WeatherDisplay:10.37,2013-05-06 17:12:00,
2013-05-06 12:17:00,72.0,41.3,30.07,ENE,61,2.0,4.8,33,0.00,CLR,,0.00,802.0,WeatherDisplay:10.37,2013-05-06 17:17:00,
2013-05-06 12:22:00,71.8,41.9,30.07,ENE,61,1.1,3.6,34,0.00,CLR,,0.00,904.0,WeatherDisplay:10.37,2013-05-06 17:22:00,
2013-05-06 12:27:00,72.1,42.9,30.07,West,279,0.0,0.0,35,0.00,CLR,,0.00,856.0,WeatherDisplay:10.37,2013-05-06 17:27:00,
2013-05-06 12:32:00,72.5,41.7,30.06,SSE,168,1.7,4.8,33,0.00,CLR,,0.00,874.0,WeatherDisplay:10.37,2013-05-06 17:32:00,
2013-05-06 12:37:00,72.7,41.9,30.06,SSE,164,1.6,4.8,33,0.00,CLR,,0.00,833.0,WeatherDisplay:10.37,2013-05-06 17:37:00,
2013-05-06 12:42:00,72.1,41.4,30.06,SSW,202,0.0,1.2,33,0.00,CLR,,0.00,912.0,WeatherDisplay:10.37,2013-05-06 17:42:00,
2013-05-06 12:47:00,72.8,42.0,30.06,NNW,331,1.8,4.8,33,0.00,CLR,,0.00,912.0,WeatherDisplay:10.37,2013-05-06 17:47:00,
2013-05-06 12:52:00,72.1,41.4,30.06,NE,36,4.5,4.8,33,0.00,CLR,,0.00,420.0,WeatherDisplay:10.37,2013-05-06 17:52:00,
2013-05-06 12:57:00,72.8,42.0,30.06,ESE,113,1.7,4.8,33,0.00,CLR,,0.00,874.0,WeatherDisplay:10.37,2013-05-06 17:57:00,
2013-05-06 13:02:00,73.0,42.2,30.06,NE,46,2.6,4.8,33,0.00,CLR,,0.00,851.0,WeatherDisplay:10.37,2013-05-06 18:02:00,
2013-05-06 13:07:00,73.2,41.6,30.06,NNE,19,2.7,6.0,32,0.00,CLR,,0.00,863.0,WeatherDisplay:10.37,2013-05-06 18:07:00,
2013-05-06 13:12:00,73.7,42.0,30.06,SSW,206,1.8,6.9,32,0.00,CLR,,0.00,911.0,WeatherDisplay:10.37,2013-05-06 18:12:00,
2013-05-06 13:17:00,73.7,42.8,30.06,SSW,192,0.5,2.4,33,0.00,CLR,,0.00,928.0,WeatherDisplay:10.37,2013-05-06 18:17:00,
2013-05-06 13:22:00,73.9,43.0,30.06,WNW,296,1.5,4.8,33,0.00,CLR,,0.00,882.0,WeatherDisplay:10.37,2013-05-06 18:22:00,
2013-05-06 13:27:00,73.7,42.8,30.06,WNW,286,0.0,1.2,33,0.00,CLR,,0.00,914.0,WeatherDisplay:10.37,2013-05-06 18:27:00,
2013-05-06 13:32:00,73.3,41.6,30.05,SSW,200,4.1,6.0,32,0.00,CLR,,0.00,888.0,WeatherDisplay:10.37,2013-05-06 18:32:00,
2013-05-06 13:37:00,73.2,40.7,30.05,SSW,196,0.0,0.0,31,0.00,CLR,,0.00,912.0,WeatherDisplay:10.37,2013-05-06 18:37:00,
2013-05-06 13:42:00,74.6,43.6,30.05,ENE,77,2.0,3.6,33,0.00,CLR,,0.00,418.0,WeatherDisplay:10.37,2013-05-06 18:42:00,
2013-05-06 13:47:00,74.4,41.8,30.05,ENE,78,0.0,3.5,31,0.00,CLR,,0.00,874.0,WeatherDisplay:10.37,2013-05-06 18:47:00,
2013-05-06 13:52:00,74.4,41.8,30.05,SSE,157,0.5,2.4,31,0.00,CLR,,0.00,881.0,WeatherDisplay:10.37,2013-05-06 18:52:00,
2013-05-06 13:57:00,74.6,43.6,30.05,SSE,163,0.0,1.2,33,0.00,CLR,,0.00,893.0,WeatherDisplay:10.37,2013-05-06 18:57:00,
2013-05-06 14:02:00,74.7,41.2,30.05,SSW,205,3.8,6.0,30,0.00,CLR,,0.00,877.0,WeatherDisplay:10.37,2013-05-06 19:02:00,
2013-05-06 14:07:00,74.0,41.4,30.05,SW,228,0.2,1.2,31,0.00,CLR,,0.00,888.0,WeatherDisplay:10.37,2013-05-06 19:07:00,
2013-05-06 14:12:00,74.7,42.0,30.05,NW,321,0.1,1.2,31,0.00,CLR,,0.00,888.0,WeatherDisplay:10.37,2013-05-06 19:12:00,
2013-05-06 14:17:00,74.9,41.4,30.05,WSW,245,2.9,4.8,30,0.00,CLR,,0.00,900.0,WeatherDisplay:10.37,2013-05-06 19:17:00,
2013-05-06 14:22:00,74.6,41.1,30.05,WSW,257,1.9,4.6,30,0.00,CLR,,0.00,921.0,WeatherDisplay:10.37,2013-05-06 19:22:00,
2013-05-06 14:27:00,75.6,42.0,30.05,West,262,1.0,3.6,30,0.00,CLR,,0.00,900.0,WeatherDisplay:10.37,2013-05-06 19:27:00,
2013-05-06 14:32:00,74.9,41.4,30.04,NW,305,1.8,6.9,30,0.00,CLR,,0.00,921.0,WeatherDisplay:10.37,2013-05-06 19:32:00,
2013-05-06 14:37:00,74.9,43.0,30.04,NW,314,5.3,7.2,32,0.00,CLR,,0.00,919.0,WeatherDisplay:10.37,2013-05-06 19:37:00,
2013-05-06 14:42:00,75.8,41.3,30.04,North,10,0.0,0.0,29,0.00,CLR,,0.00,916.0,WeatherDisplay:10.37,2013-05-06 19:42:00,
2013-05-06 14:47:00,75.8,42.1,30.03,NW,315,0.0,1.2,30,0.00,CLR,,0.00,909.0,WeatherDisplay:10.37,2013-05-06 19:47:00,
2013-05-06 14:52:00,76.0,42.3,30.03,SSW,205,4.7,8.4,30,0.00,CLR,,0.00,891.0,WeatherDisplay:10.37,2013-05-06 19:52:00,
2013-05-06 14:57:00,74.7,41.2,30.03,WSW,250,3.3,8.1,30,0.00,CLR,,0.00,837.0,WeatherDisplay:10.37,2013-05-06 19:57:00,
2013-05-06 15:02:00,74.9,42.2,30.03,SW,219,5.4,7.2,31,0.00,CLR,,0.00,765.0,WeatherDisplay:10.37,2013-05-06 20:02:00,
2013-05-06 15:07:00,74.9,42.2,30.03,South,183,1.3,6.9,31,0.00,CLR,,0.00,636.0,WeatherDisplay:10.37,2013-05-06 20:07:00,
2013-05-06 15:12:00,75.4,41.8,30.03,WSW,238,0.0,0.0,30,0.00,CLR,,0.00,577.0,WeatherDisplay:10.37,2013-05-06 20:12:00,
2013-05-06 15:17:00,76.7,43.8,30.03,WNW,301,0.2,1.2,31,0.00,CLR,,0.00,643.0,WeatherDisplay:10.37,2013-05-06 20:17:00,
2013-05-06 15:22:00,76.0,44.0,30.03,SW,221,0.0,1.2,32,0.00,CLR,,0.00,657.0,WeatherDisplay:10.37,2013-05-06 20:22:00,
2013-05-06 15:27:00,75.6,43.7,30.03,SSW,194,1.4,4.8,32,0.00,CLR,,0.00,754.0,WeatherDisplay:10.37,2013-05-06 20:27:00,
2013-05-06 15:32:00,75.8,41.3,30.03,SSW,196,0.0,0.0,29,0.00,CLR,,0.00,527.0,WeatherDisplay:10.37,2013-05-06 20:32:00,
2013-05-06 15:37:00,76.3,42.6,30.03,East,79,0.2,1.2,30,0.00,CLR,,0.00,715.0,WeatherDisplay:10.37,2013-05-06 20:37:00,
2013-05-06 15:42:00,77.4,41.7,30.03,NW,304,0.2,1.2,28,0.00,CLR,,0.00,691.0,WeatherDisplay:10.37,2013-05-06 20:42:00,
2013-05-06 15:47:00,77.4,41.7,30.02,NNE,13,2.1,4.8,28,0.00,CLR,,0.00,612.0,WeatherDisplay:10.37,2013-05-06 20:47:00,
2013-05-06 15:52:00,76.5,41.9,30.02,NNE,30,0.3,2.4,29,0.00,CLR,,0.00,636.0,WeatherDisplay:10.37,2013-05-06 20:52:00,
2013-05-06 15:57:00,77.6,42.8,30.02,NNE,17,0.0,1.2,29,0.00,CLR,,0.00,661.0,WeatherDisplay:10.37,2013-05-06 20:57:00,
2013-05-06 16:02:00,77.7,43.8,30.01,WNW,290,0.1,2.3,30,0.00,CLR,,0.00,643.0,WeatherDisplay:10.37,2013-05-06 21:02:00,
2013-05-06 16:07:00,77.7,43.8,30.01,West,259,1.2,3.6,30,0.00,CLR,,0.00,719.0,WeatherDisplay:10.37,2013-05-06 21:07:00,
2013-05-06 16:12:00,77.2,41.6,30.01,WNW,300,0.0,0.0,28,0.00,CLR,,0.00,717.0,WeatherDisplay:10.37,2013-05-06 21:12:00,
2013-05-06 16:17:00,77.4,42.6,30.01,WNW,296,0.0,0.0,29,0.00,CLR,,0.00,708.0,WeatherDisplay:10.37,2013-05-06 21:17:00,
2013-05-06 16:22:00,78.1,42.3,30.01,SW,221,1.7,4.8,28,0.00,CLR,,0.00,621.0,WeatherDisplay:10.37,2013-05-06 21:22:00,
2013-05-06 16:27:00,78.3,42.5,30.01,SW,224,0.4,2.4,28,0.00,CLR,,0.00,494.0,WeatherDisplay:10.37,2013-05-06 21:27:00,
2013-05-06 16:32:00,77.4,41.7,30.01,South,174,0.0,1.2,28,0.00,CLR,,0.00,443.0,WeatherDisplay:10.37,2013-05-06 21:32:00,
2013-05-06 16:37:00,77.2,44.2,30.01,NW,306,0.0,0.0,31,0.00,CLR,,0.00,374.0,WeatherDisplay:10.37,2013-05-06 21:37:00,
2013-05-06 16:42:00,77.4,41.7,30.01,NW,306,0.0,0.0,28,0.00,CLR,,0.00,299.0,WeatherDisplay:10.37,2013-05-06 21:42:00,
2013-05-06 16:47:00,76.8,42.1,30.01,WNW,302,0.1,1.2,29,0.00,CLR,,0.00,257.0,WeatherDisplay:10.37,2013-05-06 21:47:00,
2013-05-06 16:52:00,76.0,41.4,30.01,WNW,302,0.1,1.2,29,0.00,CLR,,0.00,251.0,WeatherDisplay:10.37,2013-05-06 21:52:00,
2013-05-06 16:57:00,75.8,43.8,30.01,WNW,302,0.0,0.0,32,0.00,CLR,,0.00,258.0,WeatherDisplay:10.37,2013-05-06 21:57:00,
2013-05-06 17:02:00,76.0,43.2,30.01,WNW,298,0.0,1.2,31,0.00,CLR,,0.00,269.0,WeatherDisplay:10.37,2013-05-06 22:02:00,
2013-05-06 17:07:00,75.3,42.6,30.01,SSW,196,0.1,1.2,31,0.00,CLR,,0.00,272.0,WeatherDisplay:10.37,2013-05-06 22:07:00,
2013-05-06 17:12:00,74.7,41.2,30.01,SSW,196,0.0,1.2,30,0.00,CLR,,0.00,264.0,WeatherDisplay:10.37,2013-05-06 22:12:00,
2013-05-06 17:17:00,74.7,41.2,30.01,SSW,196,0.0,0.0,30,0.00,CLR,,0.00,244.0,WeatherDisplay:10.37,2013-05-06 22:17:00,
2013-05-06 17:22:00,75.1,40.7,30.01,SSW,196,0.0,0.0,29,0.00,CLR,,0.00,237.0,WeatherDisplay:10.37,2013-05-06 22:22:00,
2013-05-06 17:27:00,75.4,40.9,30.01,SSW,196,0.0,0.0,29,0.00,CLR,,0.00,232.0,WeatherDisplay:10.37,2013-05-06 22:27:00,
2013-05-06 17:32:00,75.8,42.1,30.01,SSW,196,0.1,1.2,30,0.00,CLR,,0.00,220.0,WeatherDisplay:10.37,2013-05-06 22:32:00,
2013-05-06 17:37:00,75.6,41.1,30.01,SSW,196,0.0,0.0,29,0.00,CLR,,0.00,188.0,WeatherDisplay:10.37,2013-05-06 22:37:00,
2013-05-06 17:42:00,75.1,40.7,30.01,SSW,196,0.0,1.2,29,0.00,CLR,,0.00,186.0,WeatherDisplay:10.37,2013-05-06 22:42:00,
2013-05-06 17:47:00,74.9,41.4,30.01,ENE,75,1.4,3.6,30,0.00,CLR,,0.00,200.0,WeatherDisplay:10.37,2013-05-06 22:47:00,
2013-05-06 17:52:00,74.7,40.3,30.01,ENE,75,2.3,3.6,29,0.00,CLR,,0.00,209.0,WeatherDisplay:10.37,2013-05-06 22:52:00,
2013-05-06 17:57:00,74.6,42.0,30.01,North,355,0.2,3.6,31,0.00,CLR,,0.00,200.0,WeatherDisplay:10.37,2013-05-06 22:57:00,
2013-05-06 18:02:00,74.7,41.2,30.01,East,92,0.2,1.2,30,0.00,CLR,,0.00,204.0,WeatherDisplay:10.37,2013-05-06 23:02:00,
2013-05-06 18:07:00,74.7,40.3,30.01,East,97,0.0,1.2,29,0.00,CLR,,0.00,188.0,WeatherDisplay:10.37,2013-05-06 23:07:00,
2013-05-06 18:12:00,74.9,41.4,30.01,East,97,0.1,1.2,30,0.00,CLR,,0.00,167.0,WeatherDisplay:10.37,2013-05-06 23:12:00,
2013-05-06 18:17:00,74.9,40.5,30.01,SSE,148,0.1,1.2,29,0.00,CLR,,0.00,155.0,WeatherDisplay:10.37,2013-05-06 23:17:00,
2013-05-06 18:22:00,74.9,41.4,30.01,SSE,148,0.1,1.2,30,0.00,CLR,,0.00,132.0,WeatherDisplay:10.37,2013-05-06 23:22:00,
2013-05-06 18:27:00,74.9,41.4,30.01,ESE,123,0.1,1.2,30,0.00,CLR,,0.00,135.0,WeatherDisplay:10.37,2013-05-06 23:27:00,
2013-05-06 18:32:00,74.7,42.0,30.01,ESE,119,0.0,1.2,31,0.00,CLR,,0.00,128.0,WeatherDisplay:10.37,2013-05-06 23:32:00,
2013-05-06 18:37:00,74.4,40.9,30.01,ESE,113,0.3,2.4,30,0.00,CLR,,0.00,121.0,WeatherDisplay:10.37,2013-05-06 23:37:00,
2013-05-06 18:42:00,74.4,41.8,30.01,ESE,113,0.0,0.0,31,0.00,CLR,,0.00,118.0,WeatherDisplay:10.37,2013-05-06 23:42:00,
2013-05-06 18:47:00,74.4,40.9,30.01,ESE,113,0.1,1.2,30,0.00,CLR,,0.00,113.0,WeatherDisplay:10.37,2013-05-06 23:47:00,
2013-05-06 18:52:00,74.4,40.9,30.01,ESE,113,0.0,0.0,30,0.00,CLR,,0.00,107.0,WeatherDisplay:10.37,2013-05-06 23:52:00,
2013-05-06 18:57:00,74.4,41.8,30.01,ESE,113,0.0,0.0,31,0.00,CLR,,0.00,100.0,WeatherDisplay:10.37,2013-05-06 23:57:00,
2013-05-06 19:02:00,74.2,41.6,30.01,ESE,113,0.0,0.0,31,0.00,CLR,,0.00,93.0,WeatherDisplay:10.37,2013-05-07 00:02:00,
2013-05-06 19:07:00,74.2,42.4,30.01,ESE,113,0.0,0.0,32,0.00,CLR,,0.00,84.0,WeatherDisplay:10.37,2013-05-07 00:07:00,
2013-05-06 19:12:00,74.0,42.3,30.01,ESE,113,0.0,1.2,32,0.00,CLR,,0.00,77.0,WeatherDisplay:10.37,2013-05-07 00:12:00,
2013-05-06 19:17:00,73.9,43.0,30.01,ESE,113,0.0,0.0,33,0.00,CLR,,0.00,72.0,WeatherDisplay:10.37,2013-05-07 00:17:00,
2013-05-06 19:22:00,73.7,45.1,30.01,ESE,114,0.1,1.2,36,0.00,CLR,,0.00,65.0,WeatherDisplay:10.37,2013-05-07 00:22:00,
2013-05-06 19:27:00,73.0,41.4,30.01,SSE,157,0.1,1.2,32,0.00,CLR,,0.00,53.0,WeatherDisplay:10.37,2013-05-07 00:27:00,
2013-05-06 19:32:00,72.8,42.0,30.01,SSE,157,0.0,1.2,33,0.00,CLR,,0.00,44.0,WeatherDisplay:10.37,2013-05-07 00:32:00,
2013-05-06 19:37:00,72.7,41.1,30.01,SSE,157,0.0,0.0,32,0.00,CLR,,0.00,35.0,WeatherDisplay:10.37,2013-05-07 00:37:00,
2013-05-06 19:42:00,72.5,42.5,30.01,South,173,0.1,1.2,34,0.00,CLR,,0.00,28.0,WeatherDisplay:10.37,2013-05-07 00:42:00,
2013-05-06 19:47:00,72.3,42.3,30.01,South,171,0.0,2.3,34,0.00,CLR,,0.00,23.0,WeatherDisplay:10.37,2013-05-07 00:47:00,
2013-05-06 19:52:00,72.0,43.6,30.01,South,171,0.0,0.0,36,0.00,CLR,,0.00,16.0,WeatherDisplay:10.37,2013-05-07 00:52:00,
2013-05-06 19:57:00,71.5,43.1,30.01,ENE,65,4.1,6.0,36,0.00,CLR,,0.00,11.0,WeatherDisplay:10.37,2013-05-07 00:57:00,
2013-05-06 20:02:00,70.9,43.3,30.02,East,84,0.9,2.4,37,0.00,CLR,,0.00,5.0,WeatherDisplay:10.37,2013-05-07 01:02:00,
2013-05-06 20:07:00,70.4,42.9,30.02,East,95,0.0,0.0,37,0.00,CLR,,0.00,0.0,WeatherDisplay:10.37,2013-05-07 01:07:00,
2013-05-06 20:12:00,70.1,44.0,30.02,East,95,0.0,1.2,39,0.00,CLR,,0.00,0.0,WeatherDisplay:10.37,2013-05-07 01:12:00,
2013-05-06 20:17:00,69.8,43.7,30.02,ENE,67,0.6,2.4,39,0.00,CLR,,0.00,0.0,WeatherDisplay:10.37,2013-05-07 01:17:00,
2013-05-06 20:22:00,69.3,43.9,30.02,ESE,105,0.0,1.2,40,0.00,CLR,,0.00,0.0,WeatherDisplay:10.37,2013-05-07 01:22:00,
2013-05-06 20:27:00,68.8,42.8,30.02,East,79,0.0,0.0,39,0.00,CLR,,0.00,0.0,WeatherDisplay:10.37,2013-05-07 01:27:00,
2013-05-06 20:32:00,68.4,43.1,30.02,East,79,0.0,0.0,40,0.00,CLR,,0.00,0.0,WeatherDisplay:10.37,2013-05-07 01:32:00,
2013-05-06 20:37:00,68.1,42.9,30.02,East,79,0.0,0.0,40,0.00,CLR,,0.00,0.0,WeatherDisplay:10.37,2013-05-07 01:37:00,
2013-05-06 20:42:00,67.9,42.7,30.02,East,79,0.0,1.2,40,0.00,CLR,,0.00,0.0,WeatherDisplay:10.37,2013-05-07 01:42:00,
2013-05-06 20:47:00,67.6,42.4,30.02,East,79,0.0,0.0,40,0.00,CLR,,0.00,0.0,WeatherDisplay:10.37,2013-05-07 01:47:00,
2013-05-06 20:52:00,67.4,42.2,30.02,East,79,0.0,0.0,40,0.00,CLR,,0.00,0.0,WeatherDisplay:10.37,2013-05-07 01:52:00,
2013-05-06 20:57:00,67.3,42.1,30.02,East,79,0.0,0.0,40,0.00,CLR,,0.00,0.0,WeatherDisplay:10.37,2013-05-07 01:57:00,
2013-05-06 21:02:00,67.1,42.0,30.03,East,79,0.0,0.0,40,0.00,CLR,,0.00,0.0,WeatherDisplay:10.37,2013-05-07 02:02:00,
2013-05-06 21:07:00,66.9,41.1,30.03,East,79,0.0,0.0,39,0.00,CLR,,0.00,0.0,WeatherDisplay:10.37,2013-05-07 02:07:00,
2013-05-06 21:12:00,66.8,41.7,30.03,East,79,0.0,0.0,40,0.00,CLR,,0.00,0.0,WeatherDisplay:10.37,2013-05-07 02:12:00,
2013-05-06 21:17:00,66.6,41.5,30.03,East,79,0.0,0.0,40,0.00,CLR,,0.00,0.0,WeatherDisplay:10.37,2013-05-07 02:17:00,
2013-05-06 21:22:00,66.3,41.9,30.03,East,79,0.0,0.0,41,0.00,CLR,,0.00,0.0,WeatherDisplay:10.37,2013-05-07 02:22:00,
2013-05-06 21:27:00,66.1,41.7,30.03,East,79,0.0,0.0,41,0.00,CLR,,0.00,0.0,WeatherDisplay:10.37,2013-05-07 02:27:00,
2013-05-06 21:32:00,65.8,42.1,30.03,East,79,0.0,0.0,42,0.00,CLR,,0.00,0.0,WeatherDisplay:10.37,2013-05-07 02:32:00,
2013-05-06 21:37:00,65.6,41.9,30.03,East,79,0.0,0.0,42,0.00,CLR,,0.00,0.0,WeatherDisplay:10.37,2013-05-07 02:37:00,
2013-05-06 21:42:00,65.3,42.2,30.03,East,79,0.0,0.0,43,0.00,CLR,,0.00,0.0,WeatherDisplay:10.37,2013-05-07 02:42:00,
2013-05-06 21:47:00,64.8,42.4,30.04,East,79,0.0,0.0,44,0.00,CLR,,0.00,0.0,WeatherDisplay:10.37,2013-05-07 02:47:00,
2013-05-06 21:52:00,64.5,41.5,30.04,East,79,0.0,0.0,43,0.00,CLR,,0.00,0.0,WeatherDisplay:10.37,2013-05-07 02:52:00,
2013-05-06 21:57:00,64.2,41.2,30.04,East,79,0.0,0.0,43,0.00,CLR,,0.00,0.0,WeatherDisplay:10.37,2013-05-07 02:57:00,
2013-05-06 22:02:00,64.0,42.2,30.04,East,79,0.0,0.0,45,0.00,CLR,,0.00,0.0,WeatherDisplay:10.37,2013-05-07 03:02:00,
2013-05-06 22:07:00,63.7,44.2,30.04,East,79,0.0,0.0,49,0.00,CLR,,0.00,0.0,WeatherDisplay:10.37,2013-05-07 03:07:00,
2013-05-06 22:12:00,63.4,43.9,30.04,East,79,0.0,0.0,49,0.00,CLR,,0.00,0.0,WeatherDisplay:10.37,2013-05-07 03:12:00,
2013-05-06 22:17:00,63.2,43.2,30.04,East,79,0.0,0.0,48,0.00,CLR,,0.00,0.0,WeatherDisplay:10.37,2013-05-07 03:17:00,
2013-05-06 22:22:00,62.9,42.9,30.04,East,79,0.0,0.0,48,0.00,CLR,,0.00,0.0,WeatherDisplay:10.37,2013-05-07 03:22:00,
2013-05-06 22:27:00,62.7,42.7,30.04,East,79,0.0,0.0,48,0.00,CLR,,0.00,0.0,WeatherDisplay:10.37,2013-05-07 03:27:00,
2013-05-06 22:32:00,62.6,42.1,30.04,East,79,0.0,0.0,47,0.00,CLR,,0.00,0.0,WeatherDisplay:10.37,2013-05-07 03:32:00,
2013-05-06 22:37:00,62.4,42.4,30.04,East,79,0.0,0.0,48,0.00,CLR,,0.00,0.0,WeatherDisplay:10.37,2013-05-07 03:37:00,
2013-05-06 22:42:00,62.3,43.4,30.04,East,79,0.0,0.0,50,0.00,CLR,,0.00,0.0,WeatherDisplay:10.37,2013-05-07 03:42:00,
2013-05-06 22:47:00,62.0,44.2,30.04,East,79,0.0,0.0,52,0.00,CLR,,0.00,0.0,WeatherDisplay:10.37,2013-05-07 03:47:00,
2013-05-06 22:52:00,61.6,43.8,30.04,East,79,0.0,0.0,52,0.00,CLR,,0.00,0.0,WeatherDisplay:10.37,2013-05-07 03:52:00,
2013-05-06 22:57:00,61.3,44.0,30.04,East,79,0.0,0.0,53,0.00,CLR,,0.00,0.0,WeatherDisplay:10.37,2013-05-07 03:57:00,
2013-05-06 23:01:00,61.0,43.7,30.04,East,79,0.0,0.0,53,0.00,CLR,,0.00,0.0,WeatherDisplay:10.37,2013-05-07 04:01:00,
2013-05-06 23:02:00,60.9,44.1,30.04,East,79,0.0,0.0,54,0.00,CLR,,0.00,0.0,WeatherDisplay:10.37,2013-05-07 04:02:00,
2013-05-06 23:07:00,60.4,43.7,30.04,East,79,0.0,0.0,54,0.00,CLR,,0.00,0.0,WeatherDisplay:10.37,2013-05-07 04:07:00,
2013-05-06 23:12:00,60.1,42.9,30.04,East,79,0.0,0.0,53,0.00,CLR,,0.00,0.0,WeatherDisplay:10.37,2013-05-07 04:12:00,
2013-05-06 23:17:00,59.8,44.1,30.04,East,79,0.0,0.0,56,0.00,CLR,,0.00,0.0,WeatherDisplay:10.37,2013-05-07 04:17:00,
2013-05-06 23:22:00,59.5,44.7,30.04,East,79,0.0,0.0,58,0.00,CLR,,0.00,0.0,WeatherDisplay:10.37,2013-05-07 04:22:00,
2013-05-06 23:27:00,59.0,44.7,30.04,East,79,0.0,0.0,59,0.00,CLR,,0.00,0.0,WeatherDisplay:10.37,2013-05-07 04:27:00,
2013-05-06 23:32:00,58.7,44.4,30.03,East,79,0.0,0.0,59,0.00,CLR,,0.00,0.0,WeatherDisplay:10.37,2013-05-07 04:32:00,
2013-05-06 23:37:00,58.6,46.5,30.03,East,79,0.0,0.0,64,0.00,CLR,,0.00,0.0,WeatherDisplay:10.37,2013-05-07 04:37:00,
2013-05-06 23:42:00,58.6,47.7,30.03,East,79,0.0,0.0,67,0.00,CLR,,0.00,0.0,WeatherDisplay:10.37,2013-05-07 04:42:00,
2013-05-06 23:47:00,58.3,48.6,30.03,East,79,0.0,0.0,70,0.00,CLR,,0.00,0.0,WeatherDisplay:10.37,2013-05-07 04:47:00,
2013-05-06 23:52:00,58.0,48.3,30.03,East,79,0.0,0.0,70,0.00,CLR,,0.00,0.0,WeatherDisplay:10.37,2013-05-07 04:52:00,
2013-05-06 23:57:00,57.5,48.2,30.03,East,79,0.0,0.0,71,0.00,CLR,,0.00,0.0,WeatherDisplay:10.37,2013-05-07 04:57:00,